createdAt,value
2023-03-25T00:01:44.375Z,100691.84
2023-03-25T00:06:46.017Z,100689.72
2023-03-25T00:11:47.697Z,100676.34
2023-03-25T00:16:48.720Z,100675.66
2023-03-25T00:21:50.577Z,100663.44
2023-03-25T00:26:54.595Z,100654.63
2023-03-25T00:31:52.785Z,100658.22
2023-03-25T00:37:07.524Z,100658.06
2023-03-25T00:42:05.606Z,100650.38
2023-03-25T00:47:07.219Z,100636.88
2023-03-25T00:52:09.509Z,100644.03
2023-03-25T00:57:10.877Z,100641.75
2023-03-25T01:02:10.570Z,100636.34
2023-03-25T01:07:11.737Z,100634.03
2023-03-25T01:12:15.687Z,100629.19
2023-03-25T01:17:14.145Z,100625.03
2023-03-25T01:22:12.751Z,100631.28
2023-03-25T01:27:11.784Z,100616.69
2023-03-25T01:32:11.228Z,100615.41
2023-03-25T01:37:10.917Z,100621.44
2023-03-25T01:42:12.590Z,100611.41
2023-03-25T01:47:23.450Z,100612.22
2023-03-25T01:52:24.525Z,100601.47
2023-03-25T01:57:33.274Z,100592.47
2023-03-25T02:02:37.076Z,100595.56
2023-03-25T02:08:04.621Z,100581.38
2023-03-25T02:13:05.695Z,100567.22
2023-03-25T02:18:08.995Z,100555.97
2023-03-25T02:23:19.988Z,100554.34
2023-03-25T02:28:37.154Z,100555.78
2023-03-25T02:33:55.131Z,100553.94
2023-03-25T02:38:57.981Z,100554.94
2023-03-25T02:44:05.784Z,100548.59
2023-03-25T02:49:11.213Z,100544.69
2023-03-25T02:54:11.202Z,100541.88
2023-03-25T02:59:09.957Z,100533.84
2023-03-25T03:04:11.221Z,100531.13
2023-03-25T03:09:32.816Z,100532.41
2023-03-25T03:14:33.814Z,100519.19
2023-03-25T03:19:53.571Z,100523.13
2023-03-25T03:24:52.876Z,100533.84
2023-03-25T03:29:52.634Z,100529.38
2023-03-25T03:34:52.489Z,100523.81
2023-03-25T03:39:50.411Z,100530.81
2023-03-25T03:44:52.561Z,100522.19
2023-03-25T03:49:54.909Z,100517.06
2023-03-25T03:54:57.633Z,100524.53
2023-03-25T04:00:08.290Z,100522.19
2023-03-25T04:05:14.516Z,100525.09
2023-03-25T04:10:18.567Z,100526.66
2023-03-25T04:15:16.493Z,100532.06
2023-03-25T04:20:16.506Z,100525.75
2023-03-25T04:25:16.505Z,100524.75
2023-03-25T04:30:14.706Z,100531.84
2023-03-25T04:35:19.751Z,100539.38
2023-03-25T04:40:20.869Z,100543.13
2023-03-25T04:45:22.088Z,100534.88
2023-03-25T04:50:23.195Z,100546.03
2023-03-25T04:55:23.850Z,100544.50
2023-03-25T05:00:25.339Z,100546.03
2023-03-25T05:05:27.444Z,100546.06
2023-03-25T05:10:29.792Z,100545.72
2023-03-25T05:15:32.847Z,100546.44
2023-03-25T05:20:33.413Z,100543.19
2023-03-25T05:25:34.866Z,100548.56
2023-03-25T05:30:32.728Z,100544.19
2023-03-25T05:35:36.019Z,100548.25
2023-03-25T05:40:38.029Z,100544.06
2023-03-25T05:45:36.333Z,100552.88
2023-03-25T05:50:34.443Z,100550.47
2023-03-25T05:55:38.975Z,100552.44
2023-03-25T06:00:39.786Z,100550.66
2023-03-25T06:05:43.774Z,100549.16
2023-03-25T06:10:47.468Z,100548.75
2023-03-25T06:15:48.919Z,100547.09
2023-03-25T06:20:47.650Z,100541.59
2023-03-25T06:25:50.042Z,100554.53
2023-03-25T06:30:50.957Z,100555.94
2023-03-25T06:35:56.091Z,100556.34
2023-03-25T06:40:55.448Z,100554.97
2023-03-25T06:45:54.154Z,100559.19
2023-03-25T06:51:03.310Z,100557.16
2023-03-25T06:56:03.130Z,100558.31
2023-03-25T07:01:05.051Z,100561.69
2023-03-25T07:06:06.576Z,100561.53
2023-03-25T07:11:19.770Z,100559.06
2023-03-25T07:16:21.813Z,100555.56
2023-03-25T07:21:22.229Z,100547.13
2023-03-25T07:26:23.334Z,100552.63
2023-03-25T07:31:25.781Z,100564.69
2023-03-25T07:36:27.572Z,100559.94
2023-03-25T07:41:34.652Z,100560.47
2023-03-25T07:46:56.298Z,100565.81
2023-03-25T07:51:59.032Z,100570.66
2023-03-25T07:57:00.573Z,100569.03
2023-03-25T08:02:01.945Z,100565.47
2023-03-25T08:07:02.933Z,100516.84
2023-03-25T08:12:04.016Z,100574.47
2023-03-25T08:17:02.845Z,100565.66
2023-03-25T08:22:03.284Z,100554.19
2023-03-25T08:27:14.724Z,100545.47
2023-03-25T08:32:21.678Z,100539.88
2023-03-25T08:37:20.145Z,100532.25
2023-03-25T08:42:18.920Z,100529.41
2023-03-25T08:47:20.869Z,100524.97
2023-03-25T08:52:20.105Z,100519.09
2023-03-25T08:57:21.635Z,100507.94
2023-03-25T09:02:24.432Z,100510.50
2023-03-25T09:07:24.938Z,100507.25
2023-03-25T09:12:25.832Z,100511.16
2023-03-25T09:17:23.261Z,100502.91
2023-03-25T09:22:20.774Z,100509.84
2023-03-25T09:27:24.982Z,100496.16
2023-03-25T09:32:31.733Z,100496.31
2023-03-25T09:37:34.317Z,100490.00
2023-03-25T09:42:43.357Z,100484.97
2023-03-25T09:48:09.522Z,100482.66
2023-03-25T09:53:14.821Z,100478.91
2023-03-25T09:58:19.381Z,100466.50
2023-03-25T10:03:24.973Z,100473.63
2023-03-25T10:08:30.587Z,100460.53
2023-03-25T10:13:51.759Z,100475.03
2023-03-25T10:19:11.780Z,100464.78
2023-03-25T10:24:18.700Z,100460.47
2023-03-25T10:29:18.866Z,100451.97
2023-03-25T10:34:27.500Z,100452.09
2023-03-25T10:39:34.667Z,100436.78
2023-03-25T10:44:34.137Z,100436.56
2023-03-25T10:49:33.678Z,100433.91
2023-03-25T10:54:35.698Z,100422.31
2023-03-25T10:59:54.981Z,100419.53
2023-03-25T11:04:56.197Z,100403.50
2023-03-25T11:09:57.086Z,100396.78
2023-03-25T11:14:59.229Z,100384.75
2023-03-25T11:20:00.389Z,100380.66
2023-03-25T11:25:01.515Z,100371.63
2023-03-25T11:30:03.558Z,100361.09
2023-03-25T11:35:14.925Z,100355.00
2023-03-25T11:40:28.430Z,100349.78
2023-03-25T11:45:40.062Z,100338.09
2023-03-25T11:51:09.780Z,100328.44
2023-03-25T11:56:09.405Z,100322.88
2023-03-25T12:01:22.704Z,100328.34
2023-03-25T12:06:23.446Z,100323.88
2023-03-25T12:11:56.478Z,100321.78
2023-03-25T12:17:04.808Z,100314.63
2023-03-25T12:22:08.927Z,100310.56
2023-03-25T12:27:18.506Z,100303.25
2023-03-25T12:32:35.714Z,100302.06
2023-03-25T12:37:39.878Z,100301.28
2023-03-25T12:42:58.317Z,100300.78
2023-03-25T12:48:01.453Z,100292.00
2023-03-25T12:52:59.743Z,100282.44
2023-03-25T12:58:00.166Z,100275.16
2023-03-25T13:03:04.020Z,100259.22
2023-03-25T13:08:07.405Z,100256.53
2023-03-25T13:13:27.631Z,100255.41
2023-03-25T13:18:27.779Z,100246.56
2023-03-25T13:23:31.188Z,100251.50
2023-03-25T13:28:38.565Z,100243.63
2023-03-25T13:33:41.598Z,100241.28
2023-03-25T13:38:43.955Z,100243.34
2023-03-25T13:43:43.008Z,100236.31
2023-03-25T13:48:55.933Z,100235.34
2023-03-25T13:54:04.876Z,100223.28
2023-03-25T13:59:28.893Z,100235.88
2023-03-25T14:04:40.573Z,100237.13
2023-03-25T14:10:03.282Z,100235.50
2023-03-25T14:15:10.735Z,100234.50
2023-03-25T14:20:13.805Z,100246.53
2023-03-25T14:25:35.393Z,100226.16
2023-03-25T14:30:45.858Z,100214.06
2023-03-25T14:35:49.554Z,100228.09
2023-03-25T14:41:03.038Z,100225.50
2023-03-25T14:46:13.601Z,100212.34
2023-03-25T14:51:23.294Z,100206.56
2023-03-25T14:56:25.755Z,100205.38
2023-03-25T15:01:33.133Z,100200.84
2023-03-25T15:06:35.523Z,100204.81
2023-03-25T15:11:37.601Z,100207.66
2023-03-25T15:16:58.162Z,100208.88
2023-03-25T15:22:03.314Z,100195.59
2023-03-25T15:27:12.103Z,100202.41
2023-03-25T15:32:27.189Z,100191.25
2023-03-25T15:37:46.938Z,100212.69
2023-03-25T15:43:07.186Z,100192.19
2023-03-25T15:48:31.056Z,100186.31
2023-03-25T15:53:42.406Z,100187.28
2023-03-25T15:58:54.221Z,100189.41
2023-03-25T16:04:18.840Z,100198.06
2023-03-25T16:09:44.833Z,100186.41
2023-03-25T16:14:59.629Z,100189.22
2023-03-25T16:19:57.606Z,100188.81
2023-03-25T16:25:03.504Z,100193.75
2023-03-25T16:30:28.178Z,100199.41
2023-03-25T16:35:39.682Z,100199.97
2023-03-25T16:40:40.772Z,100198.00
2023-03-25T16:45:41.496Z,100204.81
2023-03-25T16:50:43.276Z,100201.72
2023-03-25T16:55:53.782Z,100205.41
2023-03-25T17:00:55.096Z,100200.66
2023-03-25T17:06:04.738Z,100203.88
2023-03-25T17:11:10.402Z,100202.53
2023-03-25T17:16:10.735Z,100200.44
2023-03-25T17:21:12.693Z,100203.78
2023-03-25T17:26:28.362Z,100198.16
2023-03-25T17:31:35.141Z,100190.56
2023-03-25T17:36:40.568Z,100196.88
2023-03-25T17:41:39.144Z,100200.06
2023-03-25T17:46:39.235Z,100193.63
2023-03-25T17:51:53.669Z,100182.63
2023-03-25T17:56:56.116Z,100185.50
2023-03-25T18:02:02.045Z,100185.75
2023-03-25T18:07:17.330Z,100176.41
2023-03-25T18:12:23.173Z,100175.84
2023-03-25T18:18:41.345Z,100180.47
2023-03-25T18:23:48.115Z,100183.19
2023-03-25T18:28:53.106Z,100175.03
2023-03-25T18:34:05.118Z,100182.03
2023-03-25T18:39:07.026Z,100176.94
2023-03-25T18:44:08.232Z,100179.69
2023-03-25T18:49:13.866Z,100184.81
2023-03-25T18:54:15.159Z,100185.50
2023-03-25T18:59:18.606Z,100183.25
2023-03-25T19:04:18.311Z,100185.09
2023-03-25T19:09:25.522Z,100187.72
2023-03-25T19:14:32.889Z,100188.84
2023-03-25T19:19:33.708Z,100197.03
2023-03-25T19:24:34.256Z,100195.59
2023-03-25T19:29:44.586Z,100194.34
2023-03-25T19:34:51.616Z,100196.16
2023-03-25T19:39:53.615Z,100206.16
2023-03-25T19:44:52.895Z,100203.44
2023-03-25T19:49:57.232Z,100203.22
2023-03-25T19:55:12.145Z,100204.09
2023-03-25T20:00:35.959Z,100203.59
2023-03-25T20:05:55.033Z,100206.50
2023-03-25T20:11:08.136Z,100209.50
2023-03-25T20:16:08.029Z,100206.56
2023-03-25T20:21:13.117Z,100210.72
2023-03-25T20:26:21.694Z,100200.47
2023-03-25T20:31:34.329Z,100206.56
2023-03-25T20:36:35.046Z,100206.38
2023-03-25T20:41:47.176Z,100204.53
2023-03-25T20:46:47.601Z,100210.72
2023-03-25T20:51:47.800Z,100209.19
2023-03-25T20:56:50.836Z,100209.81
2023-03-25T21:01:54.182Z,100207.34
2023-03-25T21:06:55.932Z,100204.31
2023-03-25T21:11:56.380Z,100195.72
2023-03-25T21:16:56.168Z,100202.06
2023-03-25T21:22:01.078Z,100205.38
2023-03-25T21:26:58.587Z,100204.41
2023-03-25T21:32:19.041Z,100205.28
2023-03-25T21:37:19.851Z,100211.28
2023-03-25T21:42:19.793Z,100205.66
2023-03-25T21:47:20.670Z,100214.16
2023-03-25T21:52:18.209Z,100213.59
2023-03-25T21:57:18.762Z,100223.69
2023-03-25T22:02:20.476Z,100226.75
2023-03-25T22:07:18.404Z,100231.22
2023-03-25T22:12:21.340Z,100242.69
2023-03-25T22:17:19.433Z,100239.66
2023-03-25T22:22:20.835Z,100242.72
2023-03-25T22:27:19.400Z,100241.84
2023-03-25T22:32:17.802Z,100247.50
2023-03-25T22:37:18.091Z,100258.78
2023-03-25T22:42:18.571Z,100243.44
2023-03-25T22:47:23.709Z,100260.19
2023-03-25T22:52:29.561Z,100264.25
2023-03-25T22:57:28.047Z,100287.19
2023-03-25T23:02:31.351Z,100291.59
2023-03-25T23:07:30.998Z,100294.25
2023-03-25T23:12:31.448Z,100314.78
2023-03-25T23:17:29.303Z,100323.13
2023-03-25T23:22:32.254Z,100329.97
2023-03-25T23:27:35.839Z,100337.69
2023-03-25T23:32:35.015Z,100336.25
2023-03-25T23:37:36.149Z,100336.88
2023-03-25T23:42:35.754Z,100331.34
2023-03-25T23:47:36.508Z,100329.66
2023-03-25T23:52:34.193Z,100331.13
2023-03-25T23:57:32.978Z,100324.91
